sensor_id;sensor_type;location;lat;lon;timestamp;pressure;altitude;pressure_sealevel;temperature;humidity
16148;BME280;8179;59.364;18.018;2024-02-04T00:01:05;98662.78;;;2.87;100.00
16148;BME280;8179;59.364;18.018;2024-02-04T00:03:32;98672.41;;;2.98;100.00
16148;BME280;8179;59.364;18.018;2024-02-04T00:05:59;98658.69;;;2.99;100.00
16148;BME280;8179;59.364;18.018;2024-02-04T00:08:26;98617.50;;;2.75;100.00
16148;BME280;8179;59.364;18.018;2024-02-04T00:10:53;98661.16;;;2.91;100.00
16148;BME280;8179;59.364;18.018;2024-02-04T00:13:20;98665.69;;;2.95;100.00
16148;BME280;8179;59.364;18.018;2024-02-04T00:15:48;98649.84;;;2.99;100.00
16148;BME280;8179;59.364;18.018;2024-02-04T00:18:16;98663.00;;;2.95;100.00
16148;BME280;8179;59.364;18.018;2024-02-04T00:20:43;98632.22;;;2.78;100.00
16148;BME280;8179;59.364;18.018;2024-02-04T00:23:13;98660.88;;;2.92;100.00
16148;BME280;8179;59.364;18.018;2024-02-04T00:25:40;98659.53;;;2.95;100.00
16148;BME280;8179;59.364;18.018;2024-02-04T00:28:08;98648.03;;;2.84;100.00
16148;BME280;8179;59.364;18.018;2024-02-04T00:30:37;98656.38;;;2.78;100.00
16148;BME280;8179;59.364;18.018;2024-02-04T00:33:04;98678.59;;;2.93;100.00
16148;BME280;8179;59.364;18.018;2024-02-04T00:35:32;98675.91;;;2.88;100.00
16148;BME280;8179;59.364;18.018;2024-02-04T00:37:59;98678.38;;;2.85;100.00
16148;BME280;8179;59.364;18.018;2024-02-04T00:40:28;98671.94;;;2.81;100.00
16148;BME280;8179;59.364;18.018;2024-02-04T00:42:55;98681.06;;;2.80;100.00
16148;BME280;8179;59.364;18.018;2024-02-04T00:45:22;98663.63;;;2.77;100.00
16148;BME280;8179;59.364;18.018;2024-02-04T00:47:49;98675.97;;;2.83;100.00
16148;BME280;8179;59.364;18.018;2024-02-04T00:50:16;98674.88;;;2.79;100.00
16148;BME280;8179;59.364;18.018;2024-02-04T00:52:44;98685.91;;;2.78;100.00
16148;BME280;8179;59.364;18.018;2024-02-04T00:55:11;98673.81;;;2.80;100.00
16148;BME280;8179;59.364;18.018;2024-02-04T00:57:38;98675.69;;;2.85;100.00
16148;BME280;8179;59.364;18.018;2024-02-04T01:00:07;98670.03;;;2.86;100.00
16148;BME280;8179;59.364;18.018;2024-02-04T01:02:35;98685.31;;;2.91;100.00
16148;BME280;8179;59.364;18.018;2024-02-04T01:05:02;98673.78;;;2.90;100.00
16148;BME280;8179;59.364;18.018;2024-02-04T01:07:29;98673.28;;;2.83;100.00
16148;BME280;8179;59.364;18.018;2024-02-04T01:09:57;98674.88;;;2.89;100.00
16148;BME280;8179;59.364;18.018;2024-02-04T01:12:24;98688.00;;;2.91;99.36
16148;BME280;8179;59.364;18.018;2024-02-04T01:14:51;98642.47;;;2.70;98.20
16148;BME280;8179;59.364;18.018;2024-02-04T01:17:18;98681.56;;;2.92;97.50
16148;BME280;8179;59.364;18.018;2024-02-04T01:19:45;98693.38;;;2.91;96.44
16148;BME280;8179;59.364;18.018;2024-02-04T01:22:12;98682.06;;;2.94;94.70
16148;BME280;8179;59.364;18.018;2024-02-04T01:24:39;98701.66;;;2.99;93.59
16148;BME280;8179;59.364;18.018;2024-02-04T01:27:08;98679.38;;;3.04;91.70
16148;BME280;8179;59.364;18.018;2024-02-04T01:29:35;98571.81;;;2.26;90.52
16148;BME280;8179;59.364;18.018;2024-02-04T01:32:03;98657.91;;;2.94;88.51
16148;BME280;8179;59.364;18.018;2024-02-04T01:34:30;98668.06;;;3.07;87.72
16148;BME280;8179;59.364;18.018;2024-02-04T01:36:56;98663.28;;;2.99;86.85
16148;BME280;8179;59.364;18.018;2024-02-04T01:39:23;98658.41;;;3.06;85.65
16148;BME280;8179;59.364;18.018;2024-02-04T01:41:50;98626.31;;;2.81;85.01
16148;BME280;8179;59.364;18.018;2024-02-04T01:44:19;98695.69;;;3.13;84.98
16148;BME280;8179;59.364;18.018;2024-02-04T01:46:48;98700.25;;;3.12;84.60
16148;BME280;8179;59.364;18.018;2024-02-04T01:49:15;98679.91;;;3.01;84.54
16148;BME280;8179;59.364;18.018;2024-02-04T01:51:42;98717.72;;;3.10;84.72
16148;BME280;8179;59.364;18.018;2024-02-04T01:54:09;98691.47;;;2.96;85.10
16148;BME280;8179;59.364;18.018;2024-02-04T01:56:36;98693.31;;;3.06;84.60
16148;BME280;8179;59.364;18.018;2024-02-04T01:59:03;98681.06;;;2.85;84.49
16148;BME280;8179;59.364;18.018;2024-02-04T02:01:33;98708.91;;;3.04;84.57
16148;BME280;8179;59.364;18.018;2024-02-04T02:04:01;98715.59;;;3.07;84.61
16148;BME280;8179;59.364;18.018;2024-02-04T02:06:28;98713.72;;;3.07;84.50
16148;BME280;8179;59.364;18.018;2024-02-04T02:08:58;98699.78;;;3.00;82.64
16148;BME280;8179;59.364;18.018;2024-02-04T02:11:35;98698.97;;;3.05;83.04
16148;BME280;8179;59.364;18.018;2024-02-04T02:14:06;98716.94;;;3.04;82.88
16148;BME280;8179;59.364;18.018;2024-02-04T02:16:36;98714.00;;;3.00;83.04
16148;BME280;8179;59.364;18.018;2024-02-04T02:19:15;98707.81;;;3.00;83.05
16148;BME280;8179;59.364;18.018;2024-02-04T02:21:50;98701.94;;;2.98;82.68
16148;BME280;8179;59.364;18.018;2024-02-04T02:24:30;98709.19;;;2.97;82.53
16148;BME280;8179;59.364;18.018;2024-02-04T02:26:59;98700.34;;;2.92;82.61
16148;BME280;8179;59.364;18.018;2024-02-04T02:29:26;98711.38;;;2.90;82.46
16148;BME280;8179;59.364;18.018;2024-02-04T02:31:53;98714.56;;;2.92;81.27
16148;BME280;8179;59.364;18.018;2024-02-04T02:34:20;98728.50;;;2.94;80.50
16148;BME280;8179;59.364;18.018;2024-02-04T02:36:52;98746.78;;;2.92;80.62
16148;BME280;8179;59.364;18.018;2024-02-04T02:39:25;98733.34;;;2.92;79.54
16148;BME280;8179;59.364;18.018;2024-02-04T02:41:57;98744.38;;;2.91;79.77
16148;BME280;8179;59.364;18.018;2024-02-04T02:44:26;98726.41;;;2.86;79.66
16148;BME280;8179;59.364;18.018;2024-02-04T02:46:54;98736.84;;;2.88;78.92
16148;BME280;8179;59.364;18.018;2024-02-04T02:49:22;98745.72;;;2.88;77.74
16148;BME280;8179;59.364;18.018;2024-02-04T02:51:49;98754.31;;;2.90;77.89
16148;BME280;8179;59.364;18.018;2024-02-04T02:54:16;98748.16;;;2.90;77.52
16148;BME280;8179;59.364;18.018;2024-02-04T02:56:43;98737.94;;;2.92;77.27
16148;BME280;8179;59.364;18.018;2024-02-04T02:59:12;98731.22;;;2.89;77.37
16148;BME280;8179;59.364;18.018;2024-02-04T03:01:39;98744.66;;;2.84;77.78
16148;BME280;8179;59.364;18.018;2024-02-04T03:04:06;98730.97;;;2.86;77.57
16148;BME280;8179;59.364;18.018;2024-02-04T03:06:33;98730.44;;;2.84;77.32
16148;BME280;8179;59.364;18.018;2024-02-04T03:09:00;98731.78;;;2.81;77.92
16148;BME280;8179;59.364;18.018;2024-02-04T03:11:27;98741.72;;;2.81;77.93
16148;BME280;8179;59.364;18.018;2024-02-04T03:13:54;98725.06;;;2.79;77.54
16148;BME280;8179;59.364;18.018;2024-02-04T03:16:23;98726.16;;;2.78;77.42
16148;BME280;8179;59.364;18.018;2024-02-04T03:18:51;98721.06;;;2.76;77.53
16148;BME280;8179;59.364;18.018;2024-02-04T03:21:18;98710.34;;;2.76;77.03
16148;BME280;8179;59.364;18.018;2024-02-04T03:23:45;98733.41;;;2.77;76.78
16148;BME280;8179;59.364;18.018;2024-02-04T03:26:16;98713.28;;;2.74;75.96
16148;BME280;8179;59.364;18.018;2024-02-04T03:28:44;98713.56;;;2.73;75.71
16148;BME280;8179;59.364;18.018;2024-02-04T03:31:11;98727.25;;;2.71;75.61
16148;BME280;8179;59.364;18.018;2024-02-04T03:33:41;98728.06;;;2.67;74.65
16148;BME280;8179;59.364;18.018;2024-02-04T03:36:08;98720.28;;;2.65;73.82
16148;BME280;8179;59.364;18.018;2024-02-04T03:38:36;98727.53;;;2.65;73.35
16148;BME280;8179;59.364;18.018;2024-02-04T03:41:03;98730.22;;;2.65;72.62
16148;BME280;8179;59.364;18.018;2024-02-04T03:43:30;98693.53;;;2.25;72.59
16148;BME280;8179;59.364;18.018;2024-02-04T03:45:57;98744.19;;;2.62;72.24
16148;BME280;8179;59.364;18.018;2024-02-04T03:48:24;98726.72;;;2.59;71.52
16148;BME280;8179;59.364;18.018;2024-02-04T03:50:52;98742.59;;;2.56;71.30
16148;BME280;8179;59.364;18.018;2024-02-04T03:53:19;98719.00;;;2.42;70.58
16148;BME280;8179;59.364;18.018;2024-02-04T03:55:48;98744.72;;;2.54;70.71
16148;BME280;8179;59.364;18.018;2024-02-04T03:58:15;98742.84;;;2.49;70.70
16148;BME280;8179;59.364;18.018;2024-02-04T04:00:42;98721.41;;;2.34;70.73
16148;BME280;8179;59.364;18.018;2024-02-04T04:03:09;98747.13;;;2.45;71.19
16148;BME280;8179;59.364;18.018;2024-02-04T04:05:36;98754.38;;;2.39;71.07
16148;BME280;8179;59.364;18.018;2024-02-04T04:08:05;98747.16;;;2.35;71.35
16148;BME280;8179;59.364;18.018;2024-02-04T04:10:32;98754.13;;;2.36;70.94
16148;BME280;8179;59.364;18.018;2024-02-04T04:12:59;98751.44;;;2.36;71.07
16148;BME280;8179;59.364;18.018;2024-02-04T04:15:25;98756.53;;;2.32;71.25
16148;BME280;8179;59.364;18.018;2024-02-04T04:17:52;98761.66;;;2.34;71.28
16148;BME280;8179;59.364;18.018;2024-02-04T04:20:19;98742.59;;;2.30;71.13
16148;BME280;8179;59.364;18.018;2024-02-04T04:22:48;98739.38;;;2.23;71.26
16148;BME280;8179;59.364;18.018;2024-02-04T04:25:16;98768.34;;;2.26;70.70
16148;BME280;8179;59.364;18.018;2024-02-04T04:27:43;98767.00;;;2.24;71.50
16148;BME280;8179;59.364;18.018;2024-02-04T04:30:10;98768.34;;;2.21;71.29
16148;BME280;8179;59.364;18.018;2024-02-04T04:32:37;98774.25;;;2.23;71.60
16148;BME280;8179;59.364;18.018;2024-02-04T04:35:05;98743.41;;;2.10;71.67
16148;BME280;8179;59.364;18.018;2024-02-04T04:37:32;98773.19;;;2.19;71.52
16148;BME280;8179;59.364;18.018;2024-02-04T04:39:59;98769.13;;;2.16;71.85
16148;BME280;8179;59.364;18.018;2024-02-04T04:42:27;98773.19;;;2.14;72.02
16148;BME280;8179;59.364;18.018;2024-02-04T04:44:54;98766.44;;;2.11;71.69
16148;BME280;8179;59.364;18.018;2024-02-04T04:47:21;98767.28;;;2.07;72.02
16148;BME280;8179;59.364;18.018;2024-02-04T04:49:48;98775.81;;;2.04;71.71
16148;BME280;8179;59.364;18.018;2024-02-04T04:52:16;98768.88;;;1.98;71.31
16148;BME280;8179;59.364;18.018;2024-02-04T04:54:43;98771.03;;;2.06;71.04
16148;BME280;8179;59.364;18.018;2024-02-04T04:57:10;98758.41;;;2.01;70.84
16148;BME280;8179;59.364;18.018;2024-02-04T04:59:39;98770.22;;;2.00;70.73
16148;BME280;8179;59.364;18.018;2024-02-04T05:02:06;98768.88;;;1.98;70.35
16148;BME280;8179;59.364;18.018;2024-02-04T05:04:33;98768.03;;;1.87;70.28
16148;BME280;8179;59.364;18.018;2024-02-04T05:07:00;98775.03;;;1.98;70.01
16148;BME280;8179;59.364;18.018;2024-02-04T05:09:27;98756.28;;;1.98;70.16
16148;BME280;8179;59.364;18.018;2024-02-04T05:11:54;98758.41;;;1.96;70.05
16148;BME280;8179;59.364;18.018;2024-02-04T05:14:21;98753.06;;;1.91;70.08
16148;BME280;8179;59.364;18.018;2024-02-04T05:16:49;98768.59;;;1.94;70.31
16148;BME280;8179;59.364;18.018;2024-02-04T05:19:16;98772.91;;;2.00;70.08
16148;BME280;8179;59.364;18.018;2024-02-04T05:21:43;98730.78;;;1.75;69.82
16148;BME280;8179;59.364;18.018;2024-02-04T05:24:10;98774.47;;;1.96;69.99
16148;BME280;8179;59.364;18.018;2024-02-04T05:26:37;98761.88;;;1.97;70.03
16148;BME280;8179;59.364;18.018;2024-02-04T05:29:04;98763.78;;;1.91;70.39
16148;BME280;8179;59.364;18.018;2024-02-04T05:31:30;98765.91;;;1.89;71.04
16148;BME280;8179;59.364;18.018;2024-02-04T05:33:59;98753.56;;;1.88;70.96
16148;BME280;8179;59.364;18.018;2024-02-04T05:36:26;98757.06;;;1.83;70.82
16148;BME280;8179;59.364;18.018;2024-02-04T05:38:53;98757.88;;;1.84;71.10
16148;BME280;8179;59.364;18.018;2024-02-04T05:41:19;98752.50;;;1.79;71.29
16148;BME280;8179;59.364;18.018;2024-02-04T05:43:46;98757.31;;;1.77;71.30
16148;BME280;8179;59.364;18.018;2024-02-04T05:46:14;98759.72;;;1.78;71.27
16148;BME280;8179;59.364;18.018;2024-02-04T05:48:41;98754.09;;;1.75;71.48
16148;BME280;8179;59.364;18.018;2024-02-04T05:51:11;98761.88;;;1.71;72.11
16148;BME280;8179;59.364;18.018;2024-02-04T05:53:39;98766.94;;;1.68;72.89
16148;BME280;8179;59.364;18.018;2024-02-04T05:56:06;98759.97;;;1.67;73.33
16148;BME280;8179;59.364;18.018;2024-02-04T05:58:33;98775.22;;;1.61;73.40
16148;BME280;8179;59.364;18.018;2024-02-04T06:01:00;98767.72;;;1.58;74.13
16148;BME280;8179;59.364;18.018;2024-02-04T06:03:27;98768.00;;;1.56;74.25
16148;BME280;8179;59.364;18.018;2024-02-04T06:05:54;98759.13;;;1.51;74.66
16148;BME280;8179;59.364;18.018;2024-02-04T06:08:22;98781.63;;;1.55;74.62
16148;BME280;8179;59.364;18.018;2024-02-04T06:10:49;98771.69;;;1.45;75.23
16148;BME280;8179;59.364;18.018;2024-02-04T06:13:16;98777.06;;;1.50;75.15
16148;BME280;8179;59.364;18.018;2024-02-04T06:15:43;98785.66;;;1.52;75.22
16148;BME280;8179;59.364;18.018;2024-02-04T06:18:10;98777.84;;;1.46;75.98
16148;BME280;8179;59.364;18.018;2024-02-04T06:20:39;98792.59;;;1.43;76.09
16148;BME280;8179;59.364;18.018;2024-02-04T06:23:06;98791.50;;;1.39;76.25
16148;BME280;8179;59.364;18.018;2024-02-04T06:25:34;98788.53;;;1.30;76.72
16148;BME280;8179;59.364;18.018;2024-02-04T06:28:02;98805.16;;;1.37;76.56
16148;BME280;8179;59.364;18.018;2024-02-04T06:30:28;98789.84;;;1.33;76.91
16148;BME280;8179;59.364;18.018;2024-02-04T06:32:55;98794.13;;;1.29;77.35
16148;BME280;8179;59.364;18.018;2024-02-04T06:35:24;98773.19;;;1.16;77.76
16148;BME280;8179;59.364;18.018;2024-02-04T06:37:51;98797.06;;;1.22;78.15
16148;BME280;8179;59.364;18.018;2024-02-04T06:40:18;98792.25;;;1.24;78.71
16148;BME280;8179;59.364;18.018;2024-02-04T06:42:46;98788.72;;;1.19;78.88
16148;BME280;8179;59.364;18.018;2024-02-04T06:45:13;98808.53;;;1.18;79.56
16148;BME280;8179;59.364;18.018;2024-02-04T06:47:43;98795.16;;;1.18;79.61
16148;BME280;8179;59.364;18.018;2024-02-04T06:50:10;98788.97;;;1.12;80.17
16148;BME280;8179;59.364;18.018;2024-02-04T06:52:39;98799.16;;;1.15;80.18
16148;BME280;8179;59.364;18.018;2024-02-04T06:55:06;98805.03;;;1.12;80.72
16148;BME280;8179;59.364;18.018;2024-02-04T06:57:34;98802.91;;;1.14;80.88
16148;BME280;8179;59.364;18.018;2024-02-04T07:00:02;98783.56;;;1.02;81.36
16148;BME280;8179;59.364;18.018;2024-02-04T07:02:30;98805.03;;;1.12;81.77
16148;BME280;8179;59.364;18.018;2024-02-04T07:04:57;98804.50;;;1.15;81.33
16148;BME280;8179;59.364;18.018;2024-02-04T07:07:24;98801.56;;;1.17;81.54
16148;BME280;8179;59.364;18.018;2024-02-04T07:09:53;98811.75;;;1.20;81.37
16148;BME280;8179;59.364;18.018;2024-02-04T07:12:20;98812.81;;;1.19;81.71
16148;BME280;8179;59.364;18.018;2024-02-04T07:14:47;98817.66;;;1.22;81.62
16148;BME280;8179;59.364;18.018;2024-02-04T07:17:16;98796.75;;;1.19;81.24
16148;BME280;8179;59.364;18.018;2024-02-04T07:19:42;98798.13;;;1.26;81.58
16148;BME280;8179;59.364;18.018;2024-02-04T07:22:12;98797.09;;;1.27;81.38
16148;BME280;8179;59.364;18.018;2024-02-04T07:24:39;98794.66;;;1.26;80.96
16148;BME280;8179;59.364;18.018;2024-02-04T07:27:06;98790.41;;;1.30;80.63
16148;BME280;8179;59.364;18.018;2024-02-04T07:29:33;98744.53;;;1.06;80.10
16148;BME280;8179;59.364;18.018;2024-02-04T07:32:00;98789.34;;;1.36;79.19
16148;BME280;8179;59.364;18.018;2024-02-04T07:34:28;98788.81;;;1.39;77.91
16148;BME280;8179;59.364;18.018;2024-02-04T07:36:55;98796.88;;;1.44;78.09
16148;BME280;8179;59.364;18.018;2024-02-04T07:39:22;98795.28;;;1.48;77.83
16148;BME280;8179;59.364;18.018;2024-02-04T07:41:49;98782.44;;;1.50;78.37
16148;BME280;8179;59.364;18.018;2024-02-04T07:44:16;98783.50;;;1.54;78.03
16148;BME280;8179;59.364;18.018;2024-02-04T07:46:43;98778.72;;;1.56;77.85
16148;BME280;8179;59.364;18.018;2024-02-04T07:49:10;98778.16;;;1.59;77.39
16148;BME280;8179;59.364;18.018;2024-02-04T07:51:38;98773.91;;;1.63;77.34
16148;BME280;8179;59.364;18.018;2024-02-04T07:54:05;98747.31;;;1.47;77.14
16148;BME280;8179;59.364;18.018;2024-02-04T07:56:32;98766.41;;;1.65;77.15
16148;BME280;8179;59.364;18.018;2024-02-04T07:58:59;98772.03;;;1.64;77.00
16148;BME280;8179;59.364;18.018;2024-02-04T08:01:26;98768.78;;;1.62;77.20
16148;BME280;8179;59.364;18.018;2024-02-04T08:03:53;98779.00;;;1.70;77.19
16148;BME280;8179;59.364;18.018;2024-02-04T08:06:20;98777.13;;;1.71;77.44
16148;BME280;8179;59.364;18.018;2024-02-04T08:08:48;98749.00;;;1.63;76.93
16148;BME280;8179;59.364;18.018;2024-02-04T08:11:16;98763.75;;;1.71;76.60
16148;BME280;8179;59.364;18.018;2024-02-04T08:13:43;98771.25;;;1.79;77.09
16148;BME280;8179;59.364;18.018;2024-02-04T08:16:10;98765.88;;;1.74;77.03
16148;BME280;8179;59.364;18.018;2024-02-04T08:18:37;98777.69;;;1.83;77.07
16148;BME280;8179;59.364;18.018;2024-02-04T08:21:05;98763.19;;;1.74;77.07
16148;BME280;8179;59.364;18.018;2024-02-04T08:23:32;98773.13;;;1.88;77.07
16148;BME280;8179;59.364;18.018;2024-02-04T08:26:01;98781.47;;;1.92;77.32
16148;BME280;8179;59.364;18.018;2024-02-04T08:28:28;98783.59;;;1.95;77.24
16148;BME280;8179;59.364;18.018;2024-02-04T08:30:55;98768.03;;;1.97;77.57
16148;BME280;8179;59.364;18.018;2024-02-04T08:33:22;98765.38;;;1.97;77.83
16148;BME280;8179;59.364;18.018;2024-02-04T08:35:49;98760.00;;;1.97;78.22
16148;BME280;8179;59.364;18.018;2024-02-04T08:38:16;98776.66;;;2.09;78.63
16148;BME280;8179;59.364;18.018;2024-02-04T08:40:42;98774.50;;;2.11;78.82
16148;BME280;8179;59.364;18.018;2024-02-04T08:43:13;98772.38;;;2.13;79.54
16148;BME280;8179;59.364;18.018;2024-02-04T08:45:41;98771.03;;;2.16;79.91
16148;BME280;8179;59.364;18.018;2024-02-04T08:48:08;98741.53;;;1.96;80.68
16148;BME280;8179;59.364;18.018;2024-02-04T08:50:35;98754.94;;;2.21;81.29
16148;BME280;8179;59.364;18.018;2024-02-04T08:53:02;98769.94;;;2.22;82.68
16148;BME280;8179;59.364;18.018;2024-02-04T08:55:30;98772.38;;;2.29;83.48
16148;BME280;8179;59.364;18.018;2024-02-04T08:57:59;98764.31;;;2.29;84.14
16148;BME280;8179;59.364;18.018;2024-02-04T09:00:30;98761.38;;;2.30;85.19
16148;BME280;8179;59.364;18.018;2024-02-04T09:02:57;98690.34;;;1.87;86.49
16148;BME280;8179;59.364;18.018;2024-02-04T09:05:24;98754.69;;;2.33;87.09
16148;BME280;8179;59.364;18.018;2024-02-04T09:07:51;98755.22;;;2.40;87.16
16148;BME280;8179;59.364;18.018;2024-02-04T09:10:20;98765.38;;;2.43;88.11
16148;BME280;8179;59.364;18.018;2024-02-04T09:12:47;98750.38;;;2.47;88.37
16148;BME280;8179;59.364;18.018;2024-02-04T09:15:14;98757.59;;;2.46;89.46
16148;BME280;8179;59.364;18.018;2024-02-04T09:17:43;98754.91;;;2.52;89.95
16148;BME280;8179;59.364;18.018;2024-02-04T09:20:11;98763.25;;;2.50;90.21
16148;BME280;8179;59.364;18.018;2024-02-04T09:22:40;98764.31;;;2.54;90.61
16148;BME280;8179;59.364;18.018;2024-02-04T09:25:08;98757.31;;;2.58;90.92
16148;BME280;8179;59.364;18.018;2024-02-04T09:27:35;98756.50;;;2.63;90.39
16148;BME280;8179;59.364;18.018;2024-02-04T09:30:03;98755.44;;;2.69;90.13
16148;BME280;8179;59.364;18.018;2024-02-04T09:32:31;98750.59;;;2.71;90.70
16148;BME280;8179;59.364;18.018;2024-02-04T09:35:01;98746.59;;;2.68;91.40
16148;BME280;8179;59.364;18.018;2024-02-04T09:37:27;98746.84;;;2.72;92.87
16148;BME280;8179;59.364;18.018;2024-02-04T09:39:54;98741.19;;;2.73;94.22
16148;BME280;8179;59.364;18.018;2024-02-04T09:42:22;98727.81;;;2.68;96.79
16148;BME280;8179;59.364;18.018;2024-02-04T09:44:50;98742.78;;;2.74;97.64
16148;BME280;8179;59.364;18.018;2024-02-04T09:47:17;98722.16;;;2.60;97.40
16148;BME280;8179;59.364;18.018;2024-02-04T09:49:44;98736.91;;;2.78;97.88
16148;BME280;8179;59.364;18.018;2024-02-04T09:52:18;98737.41;;;2.80;97.03
16148;BME280;8179;59.364;18.018;2024-02-04T09:54:49;98738.50;;;2.79;97.16
16148;BME280;8179;59.364;18.018;2024-02-04T09:57:16;98754.31;;;2.85;97.08
16148;BME280;8179;59.364;18.018;2024-02-04T09:59:45;98751.34;;;2.82;96.59
16148;BME280;8179;59.364;18.018;2024-02-04T10:02:13;98749.19;;;2.89;96.37
16148;BME280;8179;59.364;18.018;2024-02-04T10:04:39;98750.78;;;2.95;95.65
16148;BME280;8179;59.364;18.018;2024-02-04T10:07:06;98749.69;;;3.01;95.99
16148;BME280;8179;59.364;18.018;2024-02-04T10:09:35;98754.78;;;3.02;96.22
16148;BME280;8179;59.364;18.018;2024-02-04T10:12:02;98757.19;;;3.09;96.48
16148;BME280;8179;59.364;18.018;2024-02-04T10:14:30;98750.75;;;3.10;96.62
16148;BME280;8179;59.364;18.018;2024-02-04T10:16:57;98757.75;;;3.06;96.82
16148;BME280;8179;59.364;18.018;2024-02-04T10:19:24;98746.50;;;2.99;98.20
16148;BME280;8179;59.364;18.018;2024-02-04T10:21:58;98754.53;;;3.04;98.94
16148;BME280;8179;59.364;18.018;2024-02-04T10:24:25;98700.94;;;2.73;100.00
16148;BME280;8179;59.364;18.018;2024-02-04T10:26:54;98742.16;;;3.08;100.00
16148;BME280;8179;59.364;18.018;2024-02-04T10:29:22;98734.66;;;3.05;100.00
16148;BME280;8179;59.364;18.018;2024-02-04T10:31:53;98726.03;;;3.13;100.00
16148;BME280;8179;59.364;18.018;2024-02-04T10:34:20;98716.91;;;3.14;100.00
16148;BME280;8179;59.364;18.018;2024-02-04T10:36:47;98717.47;;;3.11;100.00
16148;BME280;8179;59.364;18.018;2024-02-04T10:39:14;98711.50;;;3.19;100.00
16148;BME280;8179;59.364;18.018;2024-02-04T10:41:49;98719.56;;;3.19;100.00
16148;BME280;8179;59.364;18.018;2024-02-04T10:44:21;98721.16;;;3.20;100.00
16148;BME280;8179;59.364;18.018;2024-02-04T10:46:50;98704.00;;;3.16;100.00
16148;BME280;8179;59.364;18.018;2024-02-04T10:49:18;98715.50;;;3.22;100.00
16148;BME280;8179;59.364;18.018;2024-02-04T10:51:46;98679.66;;;2.97;100.00
16148;BME280;8179;59.364;18.018;2024-02-04T10:54:15;98708.81;;;3.19;100.00
16148;BME280;8179;59.364;18.018;2024-02-04T10:56:44;98695.44;;;3.09;100.00
16148;BME280;8179;59.364;18.018;2024-02-04T10:59:11;98698.13;;;3.09;100.00
16148;BME280;8179;59.364;18.018;2024-02-04T11:01:40;98690.09;;;3.04;100.00
16148;BME280;8179;59.364;18.018;2024-02-04T11:04:08;98688.53;;;2.98;100.00
16148;BME280;8179;59.364;18.018;2024-02-04T11:06:38;98684.25;;;2.87;100.00
16148;BME280;8179;59.364;18.018;2024-02-04T11:09:08;98678.09;;;2.86;100.00
16148;BME280;8179;59.364;18.018;2024-02-04T11:11:36;98675.97;;;2.78;100.00
16148;BME280;8179;59.364;18.018;2024-02-04T11:14:05;98661.47;;;2.79;100.00
16148;BME280;8179;59.364;18.018;2024-02-04T11:16:54;98673.78;;;2.90;100.00
16148;BME280;8179;59.364;18.018;2024-02-04T11:19:37;98650.47;;;2.81;100.00
16148;BME280;8179;59.364;18.018;2024-02-04T11:22:19;98646.88;;;3.00;100.00
16148;BME280;8179;59.364;18.018;2024-02-04T11:25:10;98626.16;;;3.11;100.00
16148;BME280;8179;59.364;18.018;2024-02-04T11:27:44;98656.03;;;3.44;100.00
16148;BME280;8179;59.364;18.018;2024-02-04T11:30:12;98661.34;;;3.54;100.00
16148;BME280;8179;59.364;18.018;2024-02-04T11:32:42;98666.59;;;3.74;100.00
16148;BME280;8179;59.364;18.018;2024-02-04T11:35:09;98658.38;;;3.95;100.00
16148;BME280;8179;59.364;18.018;2024-02-04T11:37:39;98667.16;;;4.00;100.00
16148;BME280;8179;59.364;18.018;2024-02-04T11:40:13;98660.84;;;4.15;100.00
16148;BME280;8179;59.364;18.018;2024-02-04T11:42:44;98644.50;;;4.35;100.00
16148;BME280;8179;59.364;18.018;2024-02-04T11:45:12;98654.56;;;4.54;100.00
16148;BME280;8179;59.364;18.018;2024-02-04T11:47:45;98649.72;;;4.51;100.00
16148;BME280;8179;59.364;18.018;2024-02-04T11:50:12;98624.25;;;4.19;100.00
16148;BME280;8179;59.364;18.018;2024-02-04T11:52:39;98623.44;;;4.43;100.00
16148;BME280;8179;59.364;18.018;2024-02-04T11:55:13;98642.00;;;4.68;100.00
16148;BME280;8179;59.364;18.018;2024-02-04T11:57:40;98640.41;;;4.67;100.00
16148;BME280;8179;59.364;18.018;2024-02-04T12:00:09;98632.09;;;4.63;100.00
16148;BME280;8179;59.364;18.018;2024-02-04T12:02:36;98630.78;;;4.61;100.00
16148;BME280;8179;59.364;18.018;2024-02-04T12:05:06;98645.34;;;4.60;100.00
16148;BME280;8179;59.364;18.018;2024-02-04T12:07:34;98639.16;;;4.59;100.00
16148;BME280;8179;59.364;18.018;2024-02-04T12:10:01;98638.34;;;4.59;100.00
16148;BME280;8179;59.364;18.018;2024-02-04T12:12:32;98622.00;;;4.50;100.00
16148;BME280;8179;59.364;18.018;2024-02-04T12:15:00;98644.28;;;4.56;100.00
16148;BME280;8179;59.364;18.018;2024-02-04T12:17:29;98637.09;;;4.51;100.00
16148;BME280;8179;59.364;18.018;2024-02-04T12:19:56;98628.50;;;4.49;100.00
16148;BME280;8179;59.364;18.018;2024-02-04T12:22:25;98634.34;;;4.56;100.00
16148;BME280;8179;59.364;18.018;2024-02-04T12:24:52;98601.47;;;4.35;100.00
16148;BME280;8179;59.364;18.018;2024-02-04T12:27:19;98617.38;;;4.56;100.00
16148;BME280;8179;59.364;18.018;2024-02-04T12:29:50;98618.78;;;4.53;100.00
16148;BME280;8179;59.364;18.018;2024-02-04T12:32:18;98616.81;;;4.59;100.00
16148;BME280;8179;59.364;18.018;2024-02-04T12:34:47;98620.03;;;4.61;100.00
16148;BME280;8179;59.364;18.018;2024-02-04T12:37:14;98610.66;;;4.58;100.00
16148;BME280;8179;59.364;18.018;2024-02-04T12:39:42;98611.94;;;4.61;100.00
16148;BME280;8179;59.364;18.018;2024-02-04T12:42:10;98604.69;;;4.61;100.00
16148;BME280;8179;59.364;18.018;2024-02-04T12:44:37;98592.31;;;4.60;100.00
16148;BME280;8179;59.364;18.018;2024-02-04T12:47:06;98603.53;;;4.67;100.00
16148;BME280;8179;59.364;18.018;2024-02-04T12:49:33;98595.84;;;4.56;100.00
16148;BME280;8179;59.364;18.018;2024-02-04T12:52:04;98604.06;;;4.46;100.00
16148;BME280;8179;59.364;18.018;2024-02-04T12:54:41;98611.34;;;4.45;100.00
16148;BME280;8179;59.364;18.018;2024-02-04T12:57:09;98611.34;;;4.45;100.00
16148;BME280;8179;59.364;18.018;2024-02-04T12:59:38;98597.97;;;4.35;100.00
16148;BME280;8179;59.364;18.018;2024-02-04T13:02:06;98601.88;;;4.48;100.00
16148;BME280;8179;59.364;18.018;2024-02-04T13:04:35;98605.25;;;4.58;100.00
16148;BME280;8179;59.364;18.018;2024-02-04T13:07:06;98603.97;;;4.51;100.00
16148;BME280;8179;59.364;18.018;2024-02-04T13:09:34;98607.75;;;4.50;100.00
16148;BME280;8179;59.364;18.018;2024-02-04T13:12:08;98595.28;;;4.35;100.00